KPDK

Dekalb-Peachtree Airport

Atlanta, Georgia, USA
METAR KPDK 211353Z 00000KT 10SM FEW100 23/16 A3019 RMK AO2 SLP209 T02280161
Observed Flight Rules
May-21 @ 13:53 UTC (an hour ago) Visual Flight Rules
Visibility Clouds
10 miles
  • Few at 10,000' AGL
Temperatures Readings
Current 23°C / 73°F
Dewpoint 16°C / 61°F
Humidity 65%
Altimeter 30.19" Hg
Pressure 1020.9 hPa
Elevation 302
METAR KPDK 211353Z 00000KT 10SM FEW100 23/16 A3019 RMK AO2 SLP209 T02280161
Observed Flight Rules
May-21 @ 13:53 UTC
(an hour ago)
VFR
Clouds
  • Few at 10,000' AGL
Temperature Dewpoint
23°C / 73°F 16°C / 61°F
Humidity Altimeter Pressure
65% 30.19" Hg 1020.9 hPa